Time;durP1;ratioP1;P1;durP2;ratioP2;P2;SDS_P1;SDS_P2;PMS_P1;PMS_P2;Temp;Humidity;BMP_temperature;BMP_pressure;BME280_temperature;BME280_humidity;BME280_pressure;Samples;Min_cycle;Max_cycle;Signal;HPM_P1;HPM_P2
2023/11/10 00:01:36;;;;;;;1.42;0.70;;;11.60;99.90;;;;;;5094367;28;20061;-38
2023/11/10 00:04:04;;;;;;;1.25;0.63;;;11.60;99.90;;;;;;5094355;28;20054;-38
2023/11/10 00:06:31;;;;;;;1.52;0.47;;;11.60;99.90;;;;;;5094538;28;20020;-39
2023/11/10 00:08:57;;;;;;;2.50;0.60;;;11.60;99.90;;;;;;5093657;28;20028;-38
2023/11/10 00:11:26;;;;;;;0.60;0.47;;;11.60;99.90;;;;;;5093121;28;20016;-38
2023/11/10 00:13:53;;;;;;;1.00;0.40;;;11.60;99.90;;;;;;5094159;28;20513;-38
2023/11/10 00:16:19;;;;;;;1.27;0.70;;;11.60;99.90;;;;;;5093828;28;20478;-38
2023/11/10 00:18:45;;;;;;;1.08;0.60;;;11.60;99.90;;;;;;5093980;28;20024;-38
2023/11/10 00:21:19;;;;;;;0.85;0.60;;;11.60;99.90;;;;;;5094122;28;20125;-38
2023/11/10 00:23:45;;;;;;;1.13;0.60;;;11.50;99.90;;;;;;5093979;28;20473;-37
2023/11/10 00:26:24;;;;;;;1.05;0.57;;;11.60;99.90;;;;;;5093859;28;20038;-38
2023/11/10 00:28:52;;;;;;;1.15;0.60;;;11.60;99.90;;;;;;5093979;28;20031;-39
2023/11/10 00:31:21;;;;;;;0.90;0.50;;;11.50;99.90;;;;;;5093857;28;20024;-38
2023/11/10 00:33:50;;;;;;;0.63;0.30;;;11.50;99.90;;;;;;5093794;28;20016;-38
2023/11/10 00:36:17;;;;;;;3.03;0.60;;;11.50;99.90;;;;;;5093460;28;20072;-37
2023/11/10 00:38:44;;;;;;;1.00;0.60;;;11.60;99.90;;;;;;5093578;28;20477;-38
2023/11/10 00:41:09;;;;;;;0.57;0.35;;;11.50;99.90;;;;;;5093638;28;20044;-38
2023/11/10 00:43:35;;;;;;;0.50;0.50;;;11.50;99.90;;;;;;5093615;28;20055;-38
2023/11/10 00:46:01;;;;;;;0.65;0.40;;;11.50;99.90;;;;;;5093837;28;20341;-38
2023/11/10 00:48:26;;;;;;;0.90;0.60;;;11.50;99.90;;;;;;5093276;28;20027;-37
2023/11/10 00:50:52;;;;;;;1.88;0.50;;;11.50;99.90;;;;;;5093303;28;20020;-38
2023/11/10 00:53:20;;;;;;;0.60;0.30;;;11.50;99.90;;;;;;5093702;28;20020;-38
2023/11/10 00:55:45;;;;;;;0.55;0.35;;;11.50;99.90;;;;;;5093328;28;20012;-38
2023/11/10 00:58:11;;;;;;;0.80;0.40;;;11.50;99.90;;;;;;5093256;28;20035;-38
2023/11/10 01:00:37;;;;;;;0.60;0.38;;;11.50;99.90;;;;;;5093303;28;20035;-38
2023/11/10 01:03:03;;;;;;;0.75;0.32;;;11.50;99.90;;;;;;5093185;28;20024;-38
2023/11/10 01:05:29;;;;;;;0.88;0.47;;;11.50;99.90;;;;;;5092982;28;20107;-38
2023/11/10 01:07:54;;;;;;;0.60;0.40;;;11.50;99.90;;;;;;5093090;28;20052;-38
2023/11/10 01:10:20;;;;;;;0.88;0.40;;;11.50;99.90;;;;;;5093022;28;20699;-37
2023/11/10 01:12:47;;;;;;;1.15;0.40;;;11.50;99.90;;;;;;5093012;28;20381;-37
2023/11/10 01:15:15;;;;;;;0.35;0.22;;;11.50;99.90;;;;;;5092830;28;20027;-38
2023/11/10 01:17:42;;;;;;;1.02;0.50;;;11.50;99.90;;;;;;5092814;28;20020;-38
2023/11/10 01:20:11;;;;;;;1.30;0.50;;;11.50;99.90;;;;;;5092700;28;20514;-38
2023/11/10 01:22:38;;;;;;;0.40;0.40;;;11.50;99.90;;;;;;5092437;28;20063;-38
2023/11/10 01:25:05;;;;;;;0.60;0.40;;;11.50;99.90;;;;;;5092696;28;20021;-37
2023/11/10 01:27:31;;;;;;;0.55;0.30;;;11.50;99.90;;;;;;5092699;28;20035;-38
2023/11/10 01:29:57;;;;;;;2.70;0.45;;;11.50;99.90;;;;;;5092636;28;20023;-38
2023/11/10 01:32:22;;;;;;;0.68;0.30;;;11.50;99.90;;;;;;5092545;28;20377;-37
2023/11/10 01:34:48;;;;;;;0.45;0.38;;;11.50;99.90;;;;;;5092508;28;20073;-38
2023/11/10 01:37:14;;;;;;;0.98;0.50;;;11.50;99.90;;;;;;5092589;28;20501;-38
2023/11/10 01:39:40;;;;;;;0.50;0.30;;;11.50;99.90;;;;;;5092473;28;20393;-38
2023/11/10 01:42:08;;;;;;;0.82;0.40;;;11.50;99.90;;;;;;5092498;28;20017;-38
2023/11/10 01:44:35;;;;;;;1.90;0.45;;;11.50;99.90;;;;;;5092453;28;20157;-38
2023/11/10 01:47:03;;;;;;;0.55;0.30;;;11.50;99.90;;;;;;5092118;28;20024;-38
2023/11/10 01:49:29;;;;;;;0.85;0.35;;;11.50;99.90;;;;;;5092248;28;20027;-39
2023/11/10 01:51:55;;;;;;;1.08;0.47;;;11.50;99.90;;;;;;5092294;28;20026;-37
2023/11/10 01:54:24;;;;;;;0.73;0.40;;;11.50;99.90;;;;;;5092241;28;20385;-37
2023/11/10 01:56:52;;;;;;;0.20;0.20;;;11.50;99.90;;;;;;5092145;28;20031;-37
2023/11/10 01:59:19;;;;;;;0.63;0.40;;;11.50;99.90;;;;;;5092459;28;20036;-38
2023/11/10 02:01:46;;;;;;;0.70;0.32;;;11.50;99.90;;;;;;5091922;28;20032;-39
2023/11/10 02:04:13;;;;;;;0.70;0.40;;;11.50;99.90;;;;;;5092144;28;20532;-38
2023/11/10 02:06:44;;;;;;;1.33;0.22;;;11.50;99.90;;;;;;5091856;28;20469;-38
2023/11/10 02:09:10;;;;;;;1.35;0.40;;;11.50;99.90;;;;;;5091862;28;20039;-39
2023/11/10 02:11:38;;;;;;;0.40;0.35;;;11.50;99.90;;;;;;5091901;28;20024;-38
2023/11/10 02:14:08;;;;;;;0.77;0.43;;;11.50;99.90;;;;;;5092069;28;20432;-38
2023/11/10 02:16:34;;;;;;;0.43;0.30;;;11.50;99.90;;;;;;5091658;28;20020;-38
2023/11/10 02:19:00;;;;;;;0.30;0.20;;;11.50;99.90;;;;;;5091548;28;20385;-38
2023/11/10 02:21:26;;;;;;;0.80;0.35;;;11.40;99.90;;;;;;5091868;28;20027;-38
2023/11/10 02:23:55;;;;;;;0.82;0.50;;;11.50;99.90;;;;;;5091729;28;20024;-39
2023/11/10 02:26:20;;;;;;;0.40;0.30;;;11.50;99.90;;;;;;5091649;28;20043;-38
2023/11/10 02:28:46;;;;;;;0.57;0.40;;;11.50;99.90;;;;;;5091321;28;20079;-38
2023/11/10 02:31:12;;;;;;;0.60;0.30;;;11.50;99.90;;;;;;5091636;28;20468;-38
2023/11/10 02:33:39;;;;;;;0.60;0.32;;;11.50;99.90;;;;;;5091144;28;20101;-39
2023/11/10 02:36:07;;;;;;;2.20;0.35;;;11.40;99.90;;;;;;5091519;28;20505;-38
2023/11/10 02:38:34;;;;;;;1.30;0.20;;;11.50;99.90;;;;;;5091412;28;20060;-38
2023/11/10 02:41:00;;;;;;;0.90;0.40;;;11.50;99.90;;;;;;5091553;28;20361;-38
2023/11/10 02:43:25;;;;;;;0.52;0.40;;;11.50;99.90;;;;;;5091923;28;20049;-38
2023/11/10 02:45:51;;;;;;;0.45;0.20;;;11.50;99.90;;;;;;5091654;28;20024;-38
2023/11/10 02:48:17;;;;;;;1.00;0.40;;;11.50;99.90;;;;;;5091360;28;20028;-38
2023/11/10 02:50:44;;;;;;;0.77;0.30;;;11.50;99.90;;;;;;5091328;28;20028;-39
2023/11/10 02:53:09;;;;;;;0.50;0.30;;;11.50;99.90;;;;;;5091416;28;20024;-38
2023/11/10 02:55:35;;;;;;;0.40;0.28;;;11.50;99.90;;;;;;5091263;28;20370;-38
2023/11/10 02:58:01;;;;;;;0.75;0.40;;;11.50;99.90;;;;;;5091212;28;20016;-38
2023/11/10 03:00:26;;;;;;;0.30;0.22;;;11.50;99.90;;;;;;5091205;28;20028;-38
2023/11/10 03:02:52;;;;;;;0.63;0.30;;;11.50;99.90;;;;;;5091352;28;20056;-38
2023/11/10 03:05:18;;;;;;;0.50;0.30;;;11.50;99.90;;;;;;5091232;28;20050;-38
2023/11/10 03:07:43;;;;;;;0.38;0.30;;;11.50;99.90;;;;;;5091221;28;20106;-38
2023/11/10 03:10:11;;;;;;;0.50;0.20;;;11.40;99.90;;;;;;5091170;28;20024;-38
2023/11/10 03:12:37;;;;;;;0.60;0.40;;;11.40;99.90;;;;;;5089874;28;20024;-38
2023/11/10 03:15:03;;;;;;;0.35;0.20;;;11.40;99.90;;;;;;5091086;28;20027;-39
2023/11/10 03:17:29;;;;;;;0.15;0.13;;;11.40;99.90;;;;;;5091214;28;20370;-38
2023/11/10 03:19:56;;;;;;;0.95;0.43;;;11.40;99.90;;;;;;5091086;28;20509;-38
2023/11/10 03:22:22;;;;;;;0.17;0.15;;;11.40;99.90;;;;;;5091160;28;20036;-38
2023/11/10 03:24:49;;;;;;;0.50;0.30;;;11.40;99.90;;;;;;5089843;28;20024;-38
2023/11/10 03:27:15;;;;;;;0.30;0.20;;;11.40;99.90;;;;;;5090960;28;20032;-38
2023/11/10 03:29:41;;;;;;;0.60;0.20;;;11.40;99.90;;;;;;5091071;28;20029;-39
2023/11/10 03:32:08;;;;;;;0.30;0.20;;;11.40;99.90;;;;;;5091168;28;20028;-38
2023/11/10 03:34:34;;;;;;;0.40;0.20;;;11.40;99.90;;;;;;5091113;28;20389;-38
2023/11/10 03:37:00;;;;;;;0.20;0.20;;;11.40;99.90;;;;;;5090796;28;20045;-38
2023/11/10 03:39:26;;;;;;;0.55;0.20;;;11.40;99.90;;;;;;5090906;28;20028;-38
2023/11/10 03:41:51;;;;;;;0.85;0.20;;;11.40;99.90;;;;;;5090866;28;20028;-38
2023/11/10 03:44:18;;;;;;;0.10;0.10;;;11.40;99.90;;;;;;5091975;28;20024;-38
2023/11/10 03:46:43;;;;;;;0.93;0.10;;;11.40;99.90;;;;;;5094652;28;20024;-38
2023/11/10 03:49:09;;;;;;;0.50;0.20;;;11.40;99.90;;;;;;5094765;28;20077;-38
2023/11/10 03:51:34;;;;;;;0.38;0.25;;;11.40;99.90;;;;;;5094636;28;20017;-38
2023/11/10 03:54:00;;;;;;;1.48;0.10;;;11.40;99.90;;;;;;5094589;28;20044;-38
2023/11/10 03:56:26;;;;;;;0.60;0.30;;;11.40;99.90;;;;;;5093048;28;20028;-38
2023/11/10 03:58:51;;;;;;;0.38;0.10;;;11.40;99.90;;;;;;5094185;28;20039;-38
2023/11/10 04:01:19;;;;;;;0.20;0.15;;;11.40;99.90;;;;;;5094414;28;20028;-38
2023/11/10 04:03:45;;;;;;;0.30;0.15;;;11.40;99.90;;;;;;5094425;28;20020;-38
2023/11/10 04:06:11;;;;;;;0.70;0.40;;;11.40;99.90;;;;;;5094277;28;20028;-38
2023/11/10 04:08:37;;;;;;;0.30;0.20;;;11.40;99.90;;;;;;5093993;28;20111;-38
2023/11/10 04:11:03;;;;;;;0.45;0.30;;;11.40;99.90;;;;;;5094158;28;20119;-38
2023/11/10 04:13:29;;;;;;;2.20;0.30;;;11.40;99.90;;;;;;5094153;28;20016;-38
2023/11/10 04:15:56;;;;;;;0.20;0.10;;;11.40;99.90;;;;;;5094196;28;20028;-39
2023/11/10 04:18:25;;;;;;;0.20;0.20;;;11.40;99.90;;;;;;5094005;28;20485;-38
2023/11/10 04:20:51;;;;;;;0.60;0.20;;;11.40;99.90;;;;;;5094102;28;20031;-38
2023/11/10 04:23:17;;;;;;;0.20;0.10;;;11.40;99.90;;;;;;5093974;28;20095;-38
2023/11/10 04:25:43;;;;;;;0.45;0.20;;;11.40;99.90;;;;;;5093890;28;20020;-38
2023/11/10 04:28:11;;;;;;;1.00;0.20;;;11.40;99.90;;;;;;5093697;28;20036;-38
2023/11/10 04:30:37;;;;;;;0.30;0.20;;;11.40;99.90;;;;;;5093766;28;20028;-39
2023/11/10 04:33:03;;;;;;;0.43;0.20;;;11.40;99.90;;;;;;5093874;28;20032;-38
2023/11/10 04:35:28;;;;;;;0.20;0.10;;;11.40;99.90;;;;;;5093705;28;20016;-38
2023/11/10 04:37:58;;;;;;;0.20;0.10;;;11.40;99.90;;;;;;5093515;28;20085;-38
2023/11/10 04:40:26;;;;;;;0.47;0.10;;;11.40;99.90;;;;;;5093631;28;20370;-38
2023/11/10 04:42:51;;;;;;;0.10;0.10;;;11.40;99.90;;;;;;5093598;28;20081;-38
2023/11/10 04:45:17;;;;;;;0.65;0.20;;;11.40;99.90;;;;;;5093506;28;20028;-39
2023/11/10 04:47:42;;;;;;;0.10;0.10;;;11.40;99.90;;;;;;5093547;28;20063;-38
2023/11/10 04:50:08;;;;;;;0.55;0.30;;;11.40;99.90;;;;;;5093372;28;20038;-38
2023/11/10 04:52:35;;;;;;;0.15;0.15;;;11.40;99.90;;;;;;5093411;28;20509;-38
2023/11/10 04:55:01;;;;;;;0.65;0.20;;;11.40;99.90;;;;;;5093300;28;20386;-38
2023/11/10 04:57:27;;;;;;;0.52;0.20;;;11.40;99.90;;;;;;5092520;28;20102;-39
2023/11/10 04:59:54;;;;;;;0.40;0.25;;;11.40;99.90;;;;;;5093196;28;20122;-38
2023/11/10 05:02:19;;;;;;;0.63;0.20;;;11.40;99.90;;;;;;5093301;28;20065;-38
2023/11/10 05:04:45;;;;;;;0.10;0.10;;;11.40;99.90;;;;;;5093194;28;20028;-38
2023/11/10 05:07:12;;;;;;;0.85;0.20;;;11.40;99.90;;;;;;5092924;28;20024;-38
2023/11/10 05:09:39;;;;;;;0.45;0.10;;;11.40;99.90;;;;;;5093187;28;20439;-38
2023/11/10 05:12:04;;;;;;;0.30;0.10;;;11.40;99.90;;;;;;5093041;28;20016;-38
2023/11/10 05:14:30;;;;;;;0.98;0.30;;;11.40;99.90;;;;;;5093093;28;20401;-39
2023/11/10 05:16:56;;;;;;;0.55;0.20;;;11.40;99.90;;;;;;5092828;28;20024;-38
2023/11/10 05:19:21;;;;;;;0.25;0.10;;;11.40;99.90;;;;;;5092870;28;20465;-38
2023/11/10 05:21:47;;;;;;;0.28;0.20;;;11.40;99.90;;;;;;5092801;28;20032;-38
2023/11/10 05:24:13;;;;;;;0.10;0.10;;;11.40;99.90;;;;;;5092861;28;20024;-38
2023/11/10 05:26:40;;;;;;;0.38;0.25;;;11.40;99.90;;;;;;5092672;28;20035;-38
2023/11/10 05:29:06;;;;;;;0.10;0.00;;;11.40;99.90;;;;;;5092787;28;20024;-38
2023/11/10 05:31:31;;;;;;;0.45;0.20;;;11.40;99.90;;;;;;5092688;28;20438;-38
2023/11/10 05:33:58;;;;;;;0.57;0.10;;;11.40;99.90;;;;;;5092636;28;20020;-38
2023/11/10 05:36:24;;;;;;;0.17;0.13;;;11.40;99.90;;;;;;5092406;28;20065;-38
2023/11/10 05:38:50;;;;;;;0.35;0.20;;;11.40;99.90;;;;;;5091289;28;20504;-38
2023/11/10 05:41:15;;;;;;;0.17;0.10;;;11.40;99.90;;;;;;5092442;28;20028;-38
2023/11/10 05:43:41;;;;;;;0.13;0.13;;;11.40;99.90;;;;;;5092621;28;20023;-38
2023/11/10 05:46:07;;;;;;;0.10;0.10;;;11.40;99.90;;;;;;5092372;28;20099;-38
2023/11/10 05:48:33;;;;;;;0.35;0.10;;;11.40;99.90;;;;;;5092301;28;20473;-38
2023/11/10 05:51:03;;;;;;;0.20;0.10;;;11.40;99.90;;;;;;5092204;28;20024;-38
2023/11/10 05:53:30;;;;;;;0.10;0.10;;;11.40;99.90;;;;;;5092365;28;20044;-38
2023/11/10 05:55:56;;;;;;;0.35;0.20;;;11.40;99.90;;;;;;5092261;28;20427;-38
2023/11/10 05:58:21;;;;;;;0.30;0.20;;;11.40;99.90;;;;;;5091979;28;20040;-38
2023/11/10 06:00:47;;;;;;;0.38;0.10;;;11.30;99.90;;;;;;5092080;28;20075;-39
2023/11/10 06:03:14;;;;;;;0.30;0.10;;;11.40;99.90;;;;;;5092128;28;20111;-38
2023/11/10 06:05:39;;;;;;;0.98;0.10;;;11.40;99.90;;;;;;5091955;28;20077;-38
2023/11/10 06:08:05;;;;;;;0.20;0.20;;;11.40;99.90;;;;;;5092077;28;20032;-38
2023/11/10 06:10:31;;;;;;;0.57;0.20;;;11.40;99.90;;;;;;5091812;28;20363;-38
2023/11/10 06:12:57;;;;;;;0.10;0.05;;;11.40;99.90;;;;;;5092031;28;20103;-39
2023/11/10 06:15:23;;;;;;;0.40;0.38;;;11.40;99.90;;;;;;5091941;28;20195;-38
2023/11/10 06:17:49;;;;;;;0.20;0.20;;;11.40;99.90;;;;;;5091688;28;20012;-38
2023/11/10 06:20:14;;;;;;;0.60;0.20;;;11.40;99.90;;;;;;5091759;28;20107;-38
2023/11/10 06:22:40;;;;;;;0.10;0.10;;;11.40;99.90;;;;;;5091831;28;20024;-38
2023/11/10 06:25:06;;;;;;;0.30;0.17;;;11.40;99.90;;;;;;5091632;28;20032;-38
2023/11/10 06:27:33;;;;;;;0.82;0.30;;;11.40;99.90;;;;;;5091680;28;20504;-38
2023/11/10 06:30:00;;;;;;;0.40;0.20;;;11.40;99.90;;;;;;5091593;28;20021;-38
2023/11/10 06:32:26;;;;;;;0.28;0.10;;;11.40;99.90;;;;;;5091672;28;20017;-38
2023/11/10 06:34:51;;;;;;;0.40;0.30;;;11.40;99.90;;;;;;5091941;28;20027;-38
2023/11/10 06:37:18;;;;;;;0.35;0.20;;;11.40;99.90;;;;;;5091367;28;20020;-39
2023/11/10 06:39:43;;;;;;;0.30;0.10;;;11.40;99.90;;;;;;5091372;28;20391;-39
2023/11/10 06:42:09;;;;;;;0.93;0.30;;;11.40;99.90;;;;;;5091514;28;20480;-39
2023/11/10 06:44:37;;;;;;;0.98;0.30;;;11.40;99.90;;;;;;5091496;28;20589;-38
2023/11/10 06:47:03;;;;;;;0.38;0.22;;;11.30;99.90;;;;;;5091273;28;20028;-38
2023/11/10 06:49:29;;;;;;;0.50;0.40;;;11.40;99.90;;;;;;5091297;28;20025;-38
2023/11/10 06:51:54;;;;;;;0.43;0.30;;;11.30;99.90;;;;;;5091426;28;20031;-38
2023/11/10 06:54:20;;;;;;;0.70;0.50;;;11.40;99.90;;;;;;5091353;28;20020;-38
2023/11/10 06:56:46;;;;;;;0.30;0.20;;;11.40;99.90;;;;;;5091220;28;20427;-38
2023/11/10 06:59:12;;;;;;;0.65;0.30;;;11.40;99.90;;;;;;5091169;28;20644;-38
2023/11/10 07:01:37;;;;;;;0.20;0.20;;;11.30;99.90;;;;;;5091229;28;20501;-38
2023/11/10 07:04:03;;;;;;;0.90;0.30;;;11.30;99.90;;;;;;5091392;28;20054;-38
2023/11/10 07:06:30;;;;;;;0.50;0.30;;;11.30;99.90;;;;;;5091197;28;20085;-38
2023/11/10 07:08:56;;;;;;;0.88;0.30;;;11.30;99.90;;;;;;5091112;28;20024;-38
2023/11/10 07:11:22;;;;;;;0.70;0.30;;;11.40;99.90;;;;;;5091289;28;20103;-37
2023/11/10 07:13:49;;;;;;;0.20;0.20;;;11.30;99.90;;;;;;5091267;28;20454;-39
2023/11/10 07:16:16;;;;;;;0.30;0.30;;;11.30;99.90;;;;;;5091128;28;20389;-38
2023/11/10 07:18:42;;;;;;;0.47;0.30;;;11.40;99.90;;;;;;5091228;28;20013;-38
2023/11/10 07:21:07;;;;;;;0.93;0.30;;;11.30;99.90;;;;;;5095215;28;20024;-38
2023/11/10 07:23:33;;;;;;;0.88;0.50;;;11.30;99.90;;;;;;5095193;28;20031;-39
2023/11/10 07:25:59;;;;;;;0.40;0.30;;;11.30;99.90;;;;;;5095040;28;20020;-38
2023/11/10 07:28:25;;;;;;;0.95;0.40;;;11.30;99.90;;;;;;5095030;28;20032;-38
2023/11/10 07:30:51;;;;;;;0.55;0.40;;;11.30;99.90;;;;;;5094870;28;20024;-38
2023/11/10 07:33:16;;;;;;;1.48;0.52;;;11.30;99.90;;;;;;5095001;28;20012;-38
2023/11/10 07:35:42;;;;;;;0.38;0.30;;;11.40;99.90;;;;;;5094813;28;20046;-39
2023/11/10 07:38:08;;;;;;;0.75;0.40;;;11.40;99.90;;;;;;5094903;28;20028;-38
2023/11/10 07:40:34;;;;;;;0.50;0.40;;;11.30;99.90;;;;;;5094868;28;20452;-39
2023/11/10 07:42:59;;;;;;;0.82;0.52;;;11.40;99.90;;;;;;5094910;28;20028;-39
2023/11/10 07:45:25;;;;;;;0.47;0.30;;;11.40;99.90;;;;;;5094573;28;20028;-38
2023/11/10 07:47:52;;;;;;;0.70;0.32;;;11.40;99.90;;;;;;5094638;28;20036;-38
2023/11/10 07:50:19;;;;;;;0.60;0.40;;;11.40;99.90;;;;;;5094534;28;20053;-39
2023/11/10 07:52:46;;;;;;;1.05;0.45;;;11.40;99.90;;;;;;5094586;28;20389;-38
2023/11/10 07:55:13;;;;;;;0.68;0.47;;;11.40;99.90;;;;;;5094518;28;20508;-38
2023/11/10 07:57:41;;;;;;;0.80;0.50;;;11.40;99.90;;;;;;5094917;28;20078;-38
2023/11/10 08:00:07;;;;;;;0.90;0.50;;;11.40;99.90;;;;;;5094766;28;20043;-38
2023/11/10 08:02:34;;;;;;;0.38;0.38;;;11.40;99.90;;;;;;5094435;28;20082;-37
2023/11/10 08:05:01;;;;;;;0.45;0.40;;;11.40;99.90;;;;;;5094290;28;20031;-37
2023/11/10 08:07:27;;;;;;;0.70;0.50;;;11.40;99.90;;;;;;5094258;28;20016;-38
2023/11/10 08:09:52;;;;;;;0.60;0.40;;;11.40;99.90;;;;;;5094230;28;20378;-38
2023/11/10 08:12:18;;;;;;;1.35;0.50;;;11.40;99.90;;;;;;5094312;28;20056;-38
2023/11/10 08:14:43;;;;;;;0.60;0.40;;;11.40;99.90;;;;;;5094144;28;20028;-38
2023/11/10 08:17:11;;;;;;;0.60;0.40;;;11.40;99.90;;;;;;5094022;28;20488;-38
2023/11/10 08:19:38;;;;;;;0.57;0.40;;;11.40;99.90;;;;;;5092960;28;20165;-38
2023/11/10 08:22:06;;;;;;;1.60;0.50;;;11.40;99.90;;;;;;5093991;28;20066;-38
2023/11/10 08:24:31;;;;;;;1.05;0.43;;;11.50;99.90;;;;;;5094023;28;20103;-38
2023/11/10 08:26:58;;;;;;;1.05;0.50;;;11.50;99.90;;;;;;5093836;28;20145;-38
2023/11/10 08:29:23;;;;;;;0.63;0.40;;;11.50;99.90;;;;;;5094294;28;20115;-37
2023/11/10 08:31:50;;;;;;;0.65;0.40;;;11.60;99.90;;;;;;5092743;28;20162;-38
2023/11/10 08:34:16;;;;;;;0.43;0.30;;;11.60;99.90;;;;;;5093958;28;20024;-38
2023/11/10 08:36:43;;;;;;;0.45;0.38;;;11.60;99.90;;;;;;5093591;28;20020;-38
2023/11/10 08:39:09;;;;;;;0.47;0.32;;;11.60;99.90;;;;;;5093735;28;20508;-39
2023/11/10 08:41:34;;;;;;;1.00;0.40;;;11.60;99.90;;;;;;5093602;28;20081;-38
2023/11/10 08:44:04;;;;;;;0.60;0.40;;;11.60;99.90;;;;;;5093610;28;20027;-38
2023/11/10 08:46:32;;;;;;;0.52;0.32;;;11.60;99.90;;;;;;5093515;28;20073;-38
2023/11/10 08:48:59;;;;;;;0.75;0.30;;;11.60;99.90;;;;;;5093490;28;20027;-38
2023/11/10 08:51:25;;;;;;;0.70;0.40;;;11.60;99.90;;;;;;5093725;28;20385;-37
2023/11/10 08:53:51;;;;;;;0.40;0.30;;;11.60;99.90;;;;;;5093497;28;20027;-38
2023/11/10 08:56:16;;;;;;;0.40;0.20;;;11.60;99.90;;;;;;5093213;28;20073;-38
2023/11/10 08:58:42;;;;;;;0.52;0.47;;;11.60;99.90;;;;;;5093027;28;20389;-38
2023/11/10 09:01:07;;;;;;;1.35;0.47;;;11.60;99.90;;;;;;5093315;28;20024;-39
2023/11/10 09:03:33;;;;;;;1.20;0.60;;;11.60;99.90;;;;;;5092315;28;20035;-38
2023/11/10 09:05:59;;;;;;;0.50;0.20;;;11.60;99.90;;;;;;5093355;28;20043;-37
2023/11/10 09:08:24;;;;;;;0.65;0.20;;;11.60;99.90;;;;;;5093339;28;20281;-38
2023/11/10 09:10:50;;;;;;;1.10;0.30;;;11.60;99.90;;;;;;5092995;28;20024;-38
2023/11/10 09:13:16;;;;;;;0.60;0.35;;;11.60;99.90;;;;;;5093657;28;20020;-37
2023/11/10 09:15:41;;;;;;;0.35;0.20;;;11.60;99.90;;;;;;5093110;28;20028;-37
2023/11/10 09:18:07;;;;;;;2.97;0.40;;;11.60;99.90;;;;;;5093105;28;20095;-38
2023/11/10 09:20:33;;;;;;;0.43;0.30;;;11.60;99.90;;;;;;5092992;28;20024;-38
2023/11/10 09:23:00;;;;;;;1.77;0.40;;;11.70;99.90;;;;;;5093059;28;20017;-38
2023/11/10 09:25:27;;;;;;;0.20;0.20;;;11.70;99.90;;;;;;5092795;28;20020;-38
2023/11/10 09:27:56;;;;;;;1.00;0.30;;;11.70;99.90;;;;;;5092545;28;20103;-38
2023/11/10 09:30:22;;;;;;;1.52;0.35;;;11.70;99.90;;;;;;5092979;28;20584;-38
2023/11/10 09:32:48;;;;;;;0.55;0.30;;;11.70;99.90;;;;;;5092824;28;20020;-38
2023/11/10 09:35:16;;;;;;;1.75;0.35;;;11.70;99.90;;;;;;5092674;28;20016;-38
2023/11/10 09:37:46;;;;;;;0.98;0.40;;;11.60;99.90;;;;;;5092667;28;20031;-38
2023/11/10 09:40:12;;;;;;;1.55;0.40;;;11.60;99.90;;;;;;5091318;28;20069;-38
2023/11/10 09:42:42;;;;;;;0.85;0.40;;;11.60;99.90;;;;;;5092429;28;20428;-38
2023/11/10 09:45:08;;;;;;;0.60;0.25;;;11.60;99.90;;;;;;5092779;28;20020;-38
2023/11/10 09:47:34;;;;;;;0.60;0.20;;;11.60;99.90;;;;;;5092503;28;20031;-38
2023/11/10 09:50:01;;;;;;;0.63;0.22;;;11.60;99.90;;;;;;5092351;28;20026;-38
2023/11/10 09:52:31;;;;;;;0.85;0.47;;;11.60;99.90;;;;;;5092360;28;20028;-38
2023/11/10 09:54:57;;;;;;;1.30;0.30;;;11.50;99.90;;;;;;5092386;28;20062;-39
2023/11/10 09:57:25;;;;;;;0.57;0.30;;;11.40;99.90;;;;;;5092357;28;20020;-39
2023/11/10 09:59:52;;;;;;;2.50;0.45;;;11.30;99.90;;;;;;5092140;28;20054;-38
2023/11/10 10:02:18;;;;;;;0.40;0.30;;;11.40;99.90;;;;;;5092149;28;20020;-37
2023/11/10 10:04:44;;;;;;;1.35;0.30;;;11.80;99.90;;;;;;5092092;28;20032;-37
2023/11/10 10:07:11;;;;;;;2.00;0.50;;;12.10;99.90;;;;;;5091863;28;20476;-37
2023/11/10 10:09:38;;;;;;;2.40;0.40;;;12.30;99.90;;;;;;5092440;28;20031;-39
2023/11/10 10:12:05;;;;;;;4.22;0.60;;;12.20;99.90;;;;;;5092149;28;20016;-40
2023/11/10 10:14:31;;;;;;;1.40;0.47;;;11.80;99.90;;;;;;5091854;28;20384;-39
2023/11/10 10:16:57;;;;;;;2.35;0.82;;;11.60;99.90;;;;;;5091775;28;20013;-41
2023/11/10 10:19:27;;;;;;;2.25;0.47;;;11.40;99.90;;;;;;5092043;28;20477;-40
2023/11/10 10:21:54;;;;;;;2.20;0.40;;;11.40;99.90;;;;;;5092156;28;20023;-39
2023/11/10 10:24:20;;;;;;;1.23;0.52;;;11.30;99.90;;;;;;5092323;28;20406;-41
2023/11/10 10:26:47;;;;;;;0.47;0.40;;;11.30;99.90;;;;;;5092147;28;20062;-40
2023/11/10 10:29:13;;;;;;;1.55;0.50;;;11.30;99.90;;;;;;5092100;28;20098;-41
2023/11/10 10:31:38;;;;;;;0.63;0.38;;;11.30;99.90;;;;;;5091743;28;20108;-40
2023/11/10 10:34:06;;;;;;;1.40;0.50;;;11.40;99.90;;;;;;5091733;28;20054;-39
2023/11/10 10:36:32;;;;;;;1.20;0.50;;;11.40;99.90;;;;;;5091868;28;20023;-40
2023/11/10 10:39:00;;;;;;;1.63;0.55;;;11.40;99.90;;;;;;5091661;28;20081;-39
2023/11/10 10:41:26;;;;;;;1.63;0.50;;;11.40;99.90;;;;;;5091575;28;20426;-39
2023/11/10 10:43:52;;;;;;;2.55;0.50;;;11.50;99.90;;;;;;5091748;28;20059;-39
2023/11/10 10:46:21;;;;;;;1.25;0.60;;;11.50;99.90;;;;;;5091666;28;20075;-39
2023/11/10 10:48:53;;;;;;;1.52;0.50;;;11.50;99.90;;;;;;5091306;28;20485;-41
2023/11/10 10:51:19;;;;;;;0.28;0.28;;;11.60;99.90;;;;;;5091687;28;20110;-39
2023/11/10 10:53:47;;;;;;;1.88;0.65;;;11.60;99.90;;;;;;5090951;28;20013;-39
2023/11/10 10:56:14;;;;;;;0.98;0.45;;;11.70;99.90;;;;;;5090129;28;20020;-39
2023/11/10 10:58:40;;;;;;;1.42;0.50;;;11.70;99.90;;;;;;5091275;28;20043;-40
2023/11/10 11:01:11;;;;;;;1.08;0.40;;;11.70;99.90;;;;;;5086261;28;20028;-40
2023/11/10 11:04:14;;;;;;;6.13;0.88;;;11.80;99.90;;;;;;5076980;28;20024;-42
2023/11/10 11:06:54;;;;;;;1.85;0.90;;;11.80;99.90;;;;;;5070685;28;20059;-39
2023/11/10 11:09:20;;;;;;;2.03;0.75;;;11.80;99.90;;;;;;5070920;28;20527;-39
2023/11/10 11:12:29;;;;;;;2.95;0.77;;;11.80;99.90;;;;;;5071367;28;20021;-41
2023/11/10 11:15:01;;;;;;;2.42;0.60;;;11.80;99.90;;;;;;5071283;28;20028;-40
2023/11/10 11:17:54;;;;;;;3.95;0.75;;;11.90;99.90;;;;;;5070980;28;20025;-38
2023/11/10 11:20:20;;;;;;;1.83;0.50;;;11.90;99.90;;;;;;5071092;28;20078;-40
2023/11/10 11:22:47;;;;;;;1.67;0.68;;;11.90;99.90;;;;;;5071367;28;20385;-40
2023/11/10 11:25:13;;;;;;;0.95;0.60;;;11.90;99.90;;;;;;5071051;28;20031;-41
2023/11/10 11:27:39;;;;;;;2.05;0.70;;;12.00;99.90;;;;;;5071073;28;20393;-41
2023/11/10 11:30:11;;;;;;;1.70;0.50;;;12.00;99.90;;;;;;5070866;28;20024;-40
2023/11/10 11:32:40;;;;;;;1.02;0.50;;;12.00;99.90;;;;;;5070757;28;20562;-40
2023/11/10 11:35:10;;;;;;;1.60;0.65;;;12.00;99.90;;;;;;5069716;28;20367;-39
2023/11/10 11:37:37;;;;;;;2.90;0.60;;;12.00;99.90;;;;;;5070768;28;20048;-39
2023/11/10 11:40:05;;;;;;;1.58;0.47;;;12.00;99.90;;;;;;5070694;28;20064;-39
2023/11/10 11:42:35;;;;;;;1.23;0.50;;;12.10;99.90;;;;;;5070930;28;20024;-39
2023/11/10 11:45:05;;;;;;;0.75;0.43;;;12.10;99.90;;;;;;5070759;28;20103;-39
2023/11/10 11:47:33;;;;;;;1.27;0.65;;;12.10;99.90;;;;;;5071058;28;20036;-39
2023/11/10 11:49:59;;;;;;;2.78;0.60;;;12.10;99.90;;;;;;5070774;28;20118;-40
2023/11/10 11:52:25;;;;;;;1.10;0.50;;;12.10;99.90;;;;;;5070654;28;20060;-41
2023/11/10 11:54:54;;;;;;;2.30;0.65;;;12.10;99.90;;;;;;5070685;28;20079;-40
2023/11/10 11:57:20;;;;;;;0.80;0.40;;;12.10;99.90;;;;;;5070602;28;20397;-40
2023/11/10 11:59:46;;;;;;;0.70;0.40;;;12.10;99.90;;;;;;5070536;28;20037;-39
2023/11/10 12:02:13;;;;;;;1.35;0.50;;;12.10;99.90;;;;;;5070939;28;20374;-40
2023/11/10 12:04:40;;;;;;;3.05;0.50;;;12.20;99.90;;;;;;5069464;28;20536;-40
2023/11/10 12:07:06;;;;;;;1.25;0.52;;;12.10;99.90;;;;;;5074198;28;20405;-39
2023/11/10 12:09:31;;;;;;;1.27;0.40;;;12.20;99.90;;;;;;5074067;28;20025;-40
2023/11/10 12:11:57;;;;;;;0.52;0.38;;;12.20;99.90;;;;;;5074300;28;20032;-38
2023/11/10 12:14:23;;;;;;;1.27;0.50;;;12.20;99.90;;;;;;5072739;28;20024;-39
2023/11/10 12:16:49;;;;;;;0.70;0.40;;;12.20;99.90;;;;;;5073826;28;20385;-38
2023/11/10 12:19:16;;;;;;;1.40;0.50;;;12.20;99.90;;;;;;5073868;28;20024;-39
2023/11/10 12:21:42;;;;;;;1.40;0.68;;;12.20;99.90;;;;;;5073863;28;20048;-39
2023/11/10 12:24:08;;;;;;;0.70;0.40;;;12.20;99.90;;;;;;5073806;28;20020;-40
2023/11/10 12:26:39;;;;;;;1.88;0.47;;;12.20;99.90;;;;;;5073480;28;20050;-40
2023/11/10 12:29:15;;;;;;;0.82;0.50;;;12.20;99.90;;;;;;5073468;28;20021;-40
2023/11/10 12:31:43;;;;;;;0.95;0.40;;;12.20;99.90;;;;;;5073819;28;20516;-38
2023/11/10 12:34:08;;;;;;;0.75;0.40;;;12.20;99.90;;;;;;5073670;28;20095;-39
2023/11/10 12:36:35;;;;;;;1.00;0.60;;;12.20;99.90;;;;;;5073324;28;20482;-40
2023/11/10 12:39:09;;;;;;;0.88;0.45;;;12.20;99.90;;;;;;5073984;28;20378;-39
2023/11/10 12:41:35;;;;;;;0.98;0.32;;;12.20;99.90;;;;;;5073607;28;20017;-39
2023/11/10 12:44:00;;;;;;;2.70;0.40;;;12.10;99.90;;;;;;5073481;28;20410;-40
2023/11/10 12:46:26;;;;;;;1.17;0.75;;;12.20;99.90;;;;;;5073329;28;20105;-39